Time;durP1;ratioP1;P1;durP2;ratioP2;P2;SDS_P1;SDS_P2;PMS_P1;PMS_P2;Temp;Humidity;BMP_temperature;BMP_pressure;BME280_temperature;BME280_humidity;BME280_pressure;Samples;Min_cycle;Max_cycle;Signal;HPM_P1;HPM_P2
2023/02/22 00:02:58;;;;;;;18.93;9.00;;;;;;;9.11;57.77;94833.84;5031890;28;20497;-75
2023/02/22 00:05:27;;;;;;;14.47;6.67;;;;;;;9.06;57.50;94829.94;5032672;28;20528;-75
2023/02/22 00:07:56;;;;;;;16.10;8.70;;;;;;;9.07;57.07;94845.50;5032329;28;20456;-75
2023/02/22 00:10:24;;;;;;;9.77;6.20;;;;;;;9.07;57.19;94842.06;4997951;28;20980;-75
2023/02/22 00:12:53;;;;;;;10.60;5.67;;;;;;;9.12;57.49;94837.28;5032234;28;20456;-74
2023/02/22 00:15:26;;;;;;;14.80;7.03;;;;;;;9.13;57.22;94839.78;5032068;28;20550;-76
2023/02/22 00:17:53;;;;;;;9.60;6.53;;;;;;;9.15;57.03;94839.66;5032338;28;20453;-75
2023/02/22 00:20:22;;;;;;;8.83;6.70;;;;;;;9.13;57.03;94838.94;5032246;28;20437;-75
2023/02/22 00:22:52;;;;;;;11.37;6.40;;;;;;;9.11;57.00;94838.25;5032320;28;20514;-75
2023/02/22 00:25:22;;;;;;;11.33;7.37;;;;;;;9.05;57.54;94833.50;5032141;28;20537;-73
2023/02/22 00:27:51;;;;;;;8.97;6.27;;;;;;;8.98;57.97;94835.78;5031888;28;20443;-75
2023/02/22 00:30:20;;;;;;;8.37;5.13;;;;;;;8.91;58.02;94830.19;5031943;28;20480;-75
2023/02/22 00:32:48;;;;;;;7.27;6.10;;;;;;;8.91;57.56;94830.19;5031889;28;20514;-74
2023/02/22 00:35:15;;;;;;;10.07;7.17;;;;;;;8.85;58.12;94824.59;4997359;28;20900;-75
2023/02/22 00:37:42;;;;;;;9.27;6.23;;;;;;;8.84;58.18;94822.94;5031728;28;20455;-74
2023/02/22 00:40:10;;;;;;;8.70;6.07;;;;;;;8.82;58.25;94819.63;5031797;28;20514;-74
2023/02/22 00:42:38;;;;;;;7.53;5.80;;;;;;;8.78;58.25;94819.03;5032010;28;20452;-74
2023/02/22 00:45:06;;;;;;;5.70;5.20;;;;;;;8.74;58.21;94822.03;5031867;28;20505;-75
2023/02/22 00:47:33;;;;;;;10.30;5.63;;;;;;;8.71;58.45;94812.63;5031789;28;20452;-74
2023/02/22 00:50:00;;;;;;;7.17;5.80;;;;;;;8.74;59.18;94811.56;5031992;28;20460;-75
2023/02/22 00:52:27;;;;;;;7.03;5.30;;;;;;;8.74;58.37;94811.56;5032009;28;20510;-75
2023/02/22 00:54:56;;;;;;;5.90;5.30;;;;;;;8.74;58.22;94820.22;5031588;28;20484;-75
2023/02/22 00:57:24;;;;;;;8.50;5.67;;;;;;;8.73;59.22;94804.66;5031992;28;20546;-76
2023/02/22 00:59:52;;;;;;;12.30;5.87;;;;;;;8.79;58.68;94801.56;5032072;28;20494;-75
2023/02/22 01:02:19;;;;;;;5.60;5.00;;;;;;;8.81;59.17;94803.09;5031858;28;20961;-75
2023/02/22 01:04:46;;;;;;;5.53;4.40;;;;;;;8.83;59.23;94802.97;5031714;28;20448;-75
2023/02/22 01:07:13;;;;;;;7.73;4.90;;;;;;;8.88;57.94;94795.59;4997085;28;20460;-75
2023/02/22 01:09:40;;;;;;;8.70;5.00;;;;;;;8.87;58.29;94799.97;5031592;28;20475;-75
2023/02/22 01:12:07;;;;;;;5.83;4.80;;;;;;;8.86;58.79;94792.25;5031697;28;20861;-75
2023/02/22 01:14:34;;;;;;;7.00;4.13;;;;;;;8.80;58.18;94792.75;5031578;28;20586;-75
2023/02/22 01:17:03;;;;;;;11.00;5.60;;;;;;;8.72;58.53;94784.69;5031460;28;20459;-75
2023/02/22 01:19:31;;;;;;;7.53;5.33;;;;;;;8.63;58.64;94784.44;5031411;28;20931;-75
2023/02/22 01:21:57;;;;;;;7.50;4.30;;;;;;;8.62;59.12;94774.94;5031575;28;20479;-76
2023/02/22 01:24:24;;;;;;;4.43;3.90;;;;;;;8.58;58.56;94778.75;5031525;28;20455;-75
2023/02/22 01:26:52;;;;;;;9.77;5.00;;;;;;;8.62;59.38;94777.53;5031625;28;20448;-75
2023/02/22 01:29:20;;;;;;;7.83;3.80;;;;;;;8.64;59.38;94778.25;5013215;28;20446;-75
2023/02/22 01:31:53;;;;;;;6.47;4.40;;;;;;;8.72;59.21;94782.06;5031449;28;20939;-75
2023/02/22 01:34:23;;;;;;;9.40;5.07;;;;;;;8.76;58.63;94776.47;5012679;28;20483;-75
2023/02/22 01:36:50;;;;;;;6.47;4.60;;;;;;;8.78;58.63;94776.34;5031607;28;20508;-75
2023/02/22 01:39:17;;;;;;;4.70;4.03;;;;;;;8.83;58.07;94779.41;5031737;28;20936;-74
2023/02/22 01:41:44;;;;;;;6.80;5.10;;;;;;;8.87;58.87;94775.59;5012982;28;20523;-75
2023/02/22 01:44:26;;;;;;;5.23;4.10;;;;;;;8.94;57.83;94771.53;5034869;28;20456;-75
2023/02/22 01:46:54;;;;;;;5.33;4.83;;;;;;;8.95;57.46;94773.19;5034726;28;20529;-75
2023/02/22 01:49:24;;;;;;;5.10;3.60;;;;;;;8.92;57.72;94773.44;5035113;28;20509;-75
2023/02/22 01:51:54;;;;;;;7.27;4.77;;;;;;;8.93;57.16;94775.09;5034900;28;20522;-75
2023/02/22 01:54:26;;;;;;;5.67;4.50;;;;;;;8.81;56.85;94776.09;5035065;28;20452;-75
2023/02/22 01:57:00;;;;;;;11.33;5.23;;;;;;;8.79;58.07;94783.25;5034809;28;20494;-75
2023/02/22 01:59:31;;;;;;;9.43;3.90;;;;;;;8.71;57.39;94777.78;5034539;28;20540;-75
2023/02/22 02:01:59;;;;;;;4.23;3.77;;;;;;;8.74;57.92;94777.53;5034908;28;20943;-74
2023/02/22 02:04:28;;;;;;;7.00;4.50;;;;;;;8.76;57.79;94779.09;5034502;28;20453;-75
2023/02/22 02:06:59;;;;;;;5.33;3.60;;;;;;;8.75;58.59;94772.19;5034756;28;20520;-75
2023/02/22 02:09:30;;;;;;;6.57;4.27;;;;;;;8.68;58.75;94777.09;5015771;28;20486;-74
2023/02/22 02:11:59;;;;;;;7.13;4.10;;;;;;;8.67;58.45;94770.19;5034672;28;20486;-75
2023/02/22 02:14:27;;;;;;;6.20;4.77;;;;;;;8.74;57.80;94782.78;5034577;28;20855;-75
2023/02/22 02:16:55;;;;;;;5.10;4.40;;;;;;;8.72;57.63;94779.44;5034373;28;20449;-74
2023/02/22 02:19:35;;;;;;;9.27;5.47;;;;;;;8.76;58.67;94783.47;5015786;28;20513;-75
2023/02/22 02:22:25;;;;;;;4.43;3.90;;;;;;;8.77;57.15;94785.16;5034618;28;20444;-75
2023/02/22 02:25:32;;;;;;;12.07;3.93;;;;;;;8.78;58.29;94786.81;5034330;28;20531;-75
2023/02/22 02:28:28;;;;;;;6.33;3.47;;;;;;;8.76;57.91;94780.88;5034700;28;20452;-74
2023/02/22 02:31:21;;;;;;;5.70;4.00;;;;;;;8.76;58.53;94784.31;5034680;28;20528;-75
2023/02/22 02:33:57;;;;;;;3.97;3.60;;;;;;;8.79;58.31;94788.47;5033979;28;20475;-76
2023/02/22 02:36:32;;;;;;;6.90;5.00;;;;;;;8.65;57.83;94798.22;5033754;28;20491;-76
2023/02/22 02:39:05;;;;;;;8.23;4.50;;;;;;;8.62;57.96;94792.41;5034151;28;20494;-76
2023/02/22 02:41:36;;;;;;;7.10;5.60;;;;;;;8.59;58.05;94801.31;5034209;28;20452;-76
2023/02/22 02:44:06;;;;;;;7.70;5.80;;;;;;;8.48;58.16;94809.19;5034263;28;20449;-76
2023/02/22 02:46:37;;;;;;;7.20;6.20;;;;;;;8.39;58.82;94812.53;5000055;28;20447;-75
2023/02/22 02:49:08;;;;;;;15.20;8.43;;;;;;;8.34;58.49;94806.81;5034359;28;20455;-75
2023/02/22 02:51:39;;;;;;;8.30;6.27;;;;;;;8.31;58.64;94805.22;5034528;28;20455;-75
2023/02/22 02:54:08;;;;;;;15.30;8.40;;;;;;;8.26;58.50;94806.53;5034181;28;20443;-75
2023/02/22 02:56:35;;;;;;;20.03;11.97;;;;;;;8.21;58.39;94803.44;5034492;28;20503;-75
2023/02/22 02:59:01;;;;;;;11.23;9.73;;;;;;;8.24;59.00;94808.44;5034251;28;20450;-75
2023/02/22 03:01:45;;;;;;;15.10;11.07;;;;;;;8.28;59.05;94809.84;5034309;28;20451;-74
2023/02/22 03:04:30;;;;;;;12.80;8.83;;;;;;;8.28;59.16;94815.91;5034237;28;20447;-75
2023/02/22 03:07:24;;;;;;;8.03;5.73;;;;;;;8.22;59.56;94815.56;5034075;28;21187;-74
2023/02/22 03:10:02;;;;;;;6.93;4.93;;;;;;;8.17;60.10;94807.25;5015622;28;20520;-75
2023/02/22 03:12:41;;;;;;;7.13;4.97;;;;;;;8.08;60.21;94806.16;5034207;28;20525;-75
2023/02/22 03:15:20;;;;;;;10.30;4.93;;;;;;;8.02;61.07;94810.06;5034178;28;20483;-74
2023/02/22 03:17:54;;;;;;;5.93;4.20;;;;;;;7.99;60.93;94807.69;5034324;28;20556;-74
2023/02/22 03:20:31;;;;;;;8.27;4.73;;;;;;;7.94;61.02;94804.59;5033898;28;20918;-75
2023/02/22 03:23:04;;;;;;;6.60;3.87;;;;;;;7.86;61.21;94800.91;5015213;28;20440;-74
2023/02/22 03:25:37;;;;;;;5.53;4.37;;;;;;;7.80;61.11;94806.56;5033667;28;20509;-75
2023/02/22 03:28:10;;;;;;;6.27;4.33;;;;;;;7.73;61.42;94808.81;5033921;28;20451;-75
2023/02/22 03:30:41;;;;;;;7.70;4.60;;;;;;;7.71;61.84;94805.50;5033537;28;20533;-74
2023/02/22 03:33:11;;;;;;;5.80;4.57;;;;;;;7.70;62.07;94804.66;5033674;28;20536;-73
2023/02/22 03:35:46;;;;;;;5.13;4.33;;;;;;;7.72;61.99;94812.38;5033414;28;21054;-74
2023/02/22 03:38:17;;;;;;;8.70;5.43;;;;;;;7.68;61.62;94805.72;5033639;28;20450;-75
2023/02/22 03:40:47;;;;;;;5.20;3.47;;;;;;;7.65;62.11;94805.97;5033298;28;20968;-74
2023/02/22 03:43:18;;;;;;;5.10;3.80;;;;;;;7.63;62.01;94802.63;5033298;28;20462;-74
2023/02/22 03:45:49;;;;;;;5.97;4.13;;;;;;;7.70;62.78;94811.66;5033257;28;20458;-75
2023/02/22 03:48:20;;;;;;;5.30;4.00;;;;;;;7.68;62.70;94814.41;5033334;28;20450;-75
2023/02/22 03:50:50;;;;;;;4.40;3.80;;;;;;;7.81;63.27;94816.94;5033381;28;20546;-74
2023/02/22 03:53:18;;;;;;;7.83;3.30;;;;;;;7.80;62.32;94812.63;5032675;28;20525;-75
2023/02/22 03:55:46;;;;;;;8.83;4.13;;;;;;;7.93;62.74;94804.72;5032817;28;20579;-75
2023/02/22 03:58:14;;;;;;;9.37;4.20;;;;;;;8.00;61.99;94800.69;5032472;28;20447;-75
2023/02/22 04:00:43;;;;;;;5.00;3.67;;;;;;;7.92;60.94;94805.66;5032627;28;20506;-74
2023/02/22 04:03:11;;;;;;;5.67;3.57;;;;;;;7.88;61.08;94805.06;5032525;28;20436;-75
2023/02/22 04:05:38;;;;;;;4.53;3.20;;;;;;;7.88;61.08;94805.06;5031963;28;20477;-74
2023/02/22 04:08:06;;;;;;;5.10;3.57;;;;;;;7.85;61.14;94807.91;5032275;28;20451;-75
2023/02/22 04:10:33;;;;;;;5.05;3.97;;;;;;;8.05;63.80;94794.16;5031705;28;20896;-75
2023/02/22 04:13:00;;;;;;;5.17;4.07;;;;;;;8.28;63.32;94805.47;5033347;28;20232;-74
2023/02/22 04:15:27;;;;;;;5.00;3.80;;;;;;;8.42;62.92;94807.06;5033268;28;20485;-75
2023/02/22 04:17:53;;;;;;;6.40;4.00;;;;;;;8.47;60.97;94804.91;5046458;28;20884;-74
2023/02/22 04:20:24;;;;;;;4.10;3.70;;;;;;;8.46;59.54;94805.88;5053221;28;20941;-75
2023/02/22 04:22:52;;;;;;;5.27;3.87;;;;;;;8.38;59.47;94803.84;5052755;28;20782;-73
2023/02/22 04:25:21;;;;;;;8.07;5.00;;;;;;;8.21;59.50;94817.34;5052567;28;20535;-74
2023/02/22 04:27:48;;;;;;;4.90;4.37;;;;;;;8.27;59.70;94814.25;5052930;28;20856;-75
2023/02/22 04:30:17;;;;;;;7.60;5.10;;;;;;;8.33;59.47;94823.41;5052855;28;20447;-75
2023/02/22 04:32:44;;;;;;;9.30;6.03;;;;;;;8.44;59.43;94820.00;5017626;28;20455;-75
2023/02/22 04:35:11;;;;;;;8.53;7.13;;;;;;;8.43;58.62;94819.19;5052703;28;21015;-74
2023/02/22 04:37:38;;;;;;;12.47;9.63;;;;;;;8.41;58.74;94823.69;5051822;28;20453;-74
2023/02/22 04:40:07;;;;;;;15.23;9.53;;;;;;;8.32;58.59;94817.34;5034648;28;20452;-75
2023/02/22 04:42:35;;;;;;;16.17;10.20;;;;;;;8.25;59.26;94816.16;5032752;28;20446;-74
2023/02/22 04:45:03;;;;;;;16.10;10.50;;;;;;;7.95;59.98;94827.16;5032641;28;20478;-74
2023/02/22 04:47:29;;;;;;;15.23;10.27;;;;;;;7.94;59.96;94824.66;5032825;28;20512;-74
2023/02/22 04:49:56;;;;;;;15.90;9.53;;;;;;;7.91;60.53;94832.75;5032849;28;20451;-74
2023/02/22 04:52:23;;;;;;;17.07;10.33;;;;;;;7.82;60.36;94818.59;5013725;28;20458;-75
2023/02/22 04:54:50;;;;;;;13.27;10.07;;;;;;;7.78;60.83;94817.13;5032687;28;21027;-76
2023/02/22 04:57:17;;;;;;;14.33;9.80;;;;;;;7.75;60.75;94814.75;5032488;28;20481;-76
2023/02/22 04:59:45;;;;;;;19.37;11.33;;;;;;;7.68;61.02;94817.00;5032858;28;20500;-74
2023/02/22 05:02:12;;;;;;;19.03;11.90;;;;;;;7.64;60.89;94820.81;5032198;28;20450;-74
2023/02/22 05:04:39;;;;;;;17.10;10.37;;;;;;;7.58;61.27;94810.81;5032789;28;20504;-74
2023/02/22 05:07:06;;;;;;;12.00;8.37;;;;;;;7.55;61.53;94810.22;5032093;28;20454;-75
2023/02/22 05:09:32;;;;;;;22.03;8.50;;;;;;;7.50;62.48;94814.91;5032694;28;20497;-75
2023/02/22 05:11:59;;;;;;;14.70;11.90;;;;;;;7.46;61.94;94816.94;5032438;28;20465;-75
2023/02/22 05:14:26;;;;;;;12.63;9.93;;;;;;;7.34;61.88;94818.69;5013483;28;20492;-76
2023/02/22 05:16:56;;;;;;;19.50;11.67;;;;;;;7.23;62.48;94825.59;5033766;28;20580;-74
2023/02/22 05:19:24;;;;;;;32.97;18.37;;;;;;;6.92;63.47;94834.81;5017143;28;20454;-75
2023/02/22 05:21:51;;;;;;;51.97;24.47;;;;;;;6.89;64.43;94832.41;5035649;28;20445;-75
2023/02/22 05:24:17;;;;;;;42.53;22.80;;;;;;;6.91;64.08;94830.53;5035400;28;20442;-75
2023/02/22 05:26:45;;;;;;;40.97;21.30;;;;;;;6.91;63.84;94840.97;5016998;28;20466;-75
2023/02/22 05:29:13;;;;;;;42.93;20.70;;;;;;;6.75;64.35;94847.28;5035534;28;20450;-75
2023/02/22 05:31:40;;;;;;;39.00;18.13;;;;;;;6.54;64.63;94851.38;5035169;28;20446;-74
2023/02/22 05:34:09;;;;;;;30.13;16.13;;;;;;;6.33;65.07;94855.47;5034975;28;20488;-75
2023/02/22 05:36:35;;;;;;;29.90;16.13;;;;;;;6.46;66.26;94849.31;5035283;28;20485;-75
2023/02/22 05:39:02;;;;;;;21.97;13.83;;;;;;;7.09;64.89;94853.53;5048429;28;20515;-75
2023/02/22 05:41:31;;;;;;;30.40;14.90;;;;;;;8.10;62.04;94853.94;5054149;28;20908;-75
2023/02/22 05:43:57;;;;;;;31.73;15.73;;;;;;;8.94;58.65;94850.03;5054759;28;20487;-76
2023/02/22 05:46:24;;;;;;;36.20;16.80;;;;;;;9.95;55.59;94863.66;5055218;28;20454;-75
2023/02/22 05:48:51;;;;;;;51.63;18.43;;;;;;;10.97;52.01;94865.47;5058694;28;20461;-75
2023/02/22 05:51:19;;;;;;;58.57;19.60;;;;;;;11.10;51.08;94860.81;5055435;28;20542;-75
2023/02/22 05:53:46;;;;;;;53.90;19.10;;;;;;;12.06;49.13;94861.91;5054304;28;20445;-75
2023/02/22 05:56:14;;;;;;;44.53;18.90;;;;;;;12.97;47.46;94868.34;5054708;28;20535;-74
2023/02/22 05:58:41;;;;;;;94.77;36.07;;;;;;;13.75;44.83;94868.78;5054917;28;20461;-75
2023/02/22 06:01:07;;;;;;;83.50;30.77;;;;;;;14.36;43.18;94871.44;5050774;28;20453;-75
2023/02/22 06:03:34;;;;;;;70.33;24.70;;;;;;;14.98;42.85;94863.44;5055529;28;20840;-74
2023/02/22 06:06:01;;;;;;;55.87;26.50;;;;;;;15.25;40.67;94860.59;5055385;28;20967;-74
2023/02/22 06:08:29;;;;;;;64.67;29.00;;;;;;;15.46;40.25;94874.25;5055283;28;20926;-75
2023/02/22 06:10:56;;;;;;;47.83;27.60;;;;;;;15.53;40.65;94868.31;5054940;28;20491;-76
2023/02/22 06:13:22;;;;;;;39.63;25.63;;;;;;;15.65;40.83;94867.06;5055129;28;20450;-75
2023/02/22 06:15:49;;;;;;;34.43;14.37;;;;;;;15.76;40.99;94861.47;5019968;28;21028;-76
2023/02/22 06:18:16;;;;;;;26.47;10.50;;;;;;;15.85;40.60;94863.13;5053182;28;20464;-74
2023/02/22 06:20:43;;;;;;;20.37;8.00;;;;;;;16.00;39.46;94858.88;5027439;28;20500;-74
2023/02/22 06:23:10;;;;;;;9.30;6.00;;;;;;;16.15;41.06;94852.91;5054630;28;20446;-75
2023/02/22 06:25:38;;;;;;;16.23;6.37;;;;;;;16.31;41.06;94852.91;5018439;28;20487;-74
2023/02/22 06:28:05;;;;;;;12.80;5.10;;;;;;;16.25;40.09;94854.41;5053252;28;20940;-74
2023/02/22 06:30:31;;;;;;;5.90;4.57;;;;;;;16.01;42.39;94849.94;5054036;28;20446;-74
2023/02/22 06:32:58;;;;;;;9.17;4.30;;;;;;;15.91;44.94;94843.97;5053603;28;20490;-74
2023/02/22 06:35:25;;;;;;;7.70;4.13;;;;;;;15.65;40.45;94843.25;5053575;28;20442;-74
2023/02/22 06:37:52;;;;;;;4.73;3.53;;;;;;;15.34;41.48;94848.28;5054150;28;20483;-74
2023/02/22 06:40:19;;;;;;;10.97;4.43;;;;;;;15.39;41.30;94852.09;5053558;28;20450;-74
2023/02/22 06:42:49;;;;;;;7.20;4.67;;;;;;;15.37;41.03;94856.72;5040080;28;20492;-75
2023/02/22 06:45:17;;;;;;;11.07;5.07;;;;;;;15.52;41.97;94853.44;5053566;28;20489;-74
2023/02/22 06:47:44;;;;;;;10.40;4.87;;;;;;;15.81;41.55;94851.22;5053587;28;20444;-74
2023/02/22 06:50:19;;;;;;;7.77;4.43;;;;;;;16.01;40.31;94847.28;5042291;28;20597;-74
2023/02/22 06:52:47;;;;;;;9.63;4.50;;;;;;;16.06;39.68;94854.72;5052810;28;20448;-74
2023/02/22 06:55:18;;;;;;;14.40;7.30;;;;;;;15.37;41.01;94858.53;5034295;28;20528;-74
2023/02/22 06:57:44;;;;;;;19.40;11.87;;;;;;;13.93;45.57;94861.69;5011429;28;20875;-76
2023/02/22 07:00:16;;;;;;;25.63;13.73;;;;;;;13.79;45.42;94867.50;5049147;28;20952;-75
2023/02/22 07:02:43;;;;;;;23.83;11.90;;;;;;;13.86;44.79;94860.63;5052303;28;20958;-75
2023/02/22 07:05:11;;;;;;;15.40;10.97;;;;;;;13.47;44.63;94868.81;5066269;28;20943;-75
2023/02/22 07:07:38;;;;;;;16.53;11.90;;;;;;;13.43;44.69;94875.38;5048950;28;20524;-75
2023/02/22 07:10:07;;;;;;;24.73;14.07;;;;;;;12.96;45.37;94872.78;5052822;28;20539;-74
2023/02/22 07:12:34;;;;;;;21.73;11.93;;;;;;;13.11;44.71;94867.03;5034330;28;20447;-75
2023/02/22 07:15:00;;;;;;;18.73;12.57;;;;;;;13.34;44.82;94868.34;5052767;28;20940;-75
2023/02/22 07:17:28;;;;;;;22.87;14.20;;;;;;;13.18;44.55;94866.34;5052763;28;20969;-74
2023/02/22 07:19:55;;;;;;;32.07;14.90;;;;;;;13.40;45.18;94866.94;5052322;28;20451;-75
2023/02/22 07:22:22;;;;;;;17.30;12.50;;;;;;;12.59;45.80;94875.41;5053077;28;20449;-74
2023/02/22 07:24:49;;;;;;;28.33;13.60;;;;;;;12.75;45.84;94877.44;5052748;28;20784;-75
2023/02/22 07:27:16;;;;;;;21.90;13.67;;;;;;;12.87;45.95;94873.66;5052999;28;20516;-75
2023/02/22 07:29:43;;;;;;;19.90;13.90;;;;;;;12.97;45.72;94878.88;5052433;28;20993;-75
2023/02/22 07:32:10;;;;;;;21.73;14.50;;;;;;;13.06;45.66;94879.84;5052693;28;20515;-74
2023/02/22 07:34:39;;;;;;;23.10;14.70;;;;;;;13.20;45.63;94874.09;5052937;28;20486;-75
2023/02/22 07:37:05;;;;;;;32.00;18.67;;;;;;;13.24;46.29;94865.75;5052845;28;20470;-74
2023/02/22 07:39:33;;;;;;;30.50;18.17;;;;;;;13.24;45.84;94870.19;5051749;28;20443;-75
2023/02/22 07:42:00;;;;;;;21.00;14.50;;;;;;;13.30;45.05;94859.09;5036181;28;20445;-75
2023/02/22 07:44:26;;;;;;;19.53;12.73;;;;;;;13.20;45.46;94860.91;5052410;28;20945;-75
2023/02/22 07:46:53;;;;;;;20.80;12.50;;;;;;;13.27;46.72;94860.19;5052433;28;20458;-75
2023/02/22 07:49:20;;;;;;;19.83;13.43;;;;;;;13.33;46.29;94864.06;5016831;28;20496;-74
2023/02/22 07:51:48;;;;;;;20.77;12.83;;;;;;;13.31;46.71;94861.56;5051839;28;20443;-75
2023/02/22 07:54:15;;;;;;;24.40;13.10;;;;;;;13.21;46.78;94866.03;5052164;28;21036;-75
2023/02/22 07:56:46;;;;;;;21.50;13.70;;;;;;;13.00;47.44;94855.69;5052420;28;20486;-74
2023/02/22 07:59:13;;;;;;;23.80;13.30;;;;;;;13.21;48.09;94850.22;5052368;28;20956;-75
2023/02/22 08:01:40;;;;;;;25.10;13.10;;;;;;;13.32;47.28;94854.50;5032707;28;20439;-75
2023/02/22 08:04:07;;;;;;;22.73;13.57;;;;;;;13.32;47.15;94854.50;5052121;28;20451;-75
2023/02/22 08:06:34;;;;;;;17.83;12.47;;;;;;;13.35;46.88;94850.72;5052221;28;20819;-74
2023/02/22 08:09:02;;;;;;;16.80;12.37;;;;;;;13.42;46.04;94846.53;5049391;28;20452;-77
2023/02/22 08:11:29;;;;;;;21.23;11.50;;;;;;;13.51;46.09;94850.88;5051782;28;20441;-75
2023/02/22 08:13:55;;;;;;;19.00;11.10;;;;;;;13.55;45.83;94855.72;5050382;28;20954;-75
2023/02/22 08:16:22;;;;;;;18.50;10.70;;;;;;;13.55;46.25;94844.34;5051958;28;20504;-75
2023/02/22 08:18:49;;;;;;;18.03;10.57;;;;;;;13.79;46.01;94843.75;5051962;28;20441;-74
2023/02/22 08:21:16;;;;;;;16.27;10.90;;;;;;;14.01;45.36;94848.56;5051908;28;20451;-75
2023/02/22 08:23:43;;;;;;;25.47;11.67;;;;;;;14.10;45.71;94846.81;5050567;28;20455;-74
2023/02/22 08:26:14;;;;;;;38.40;12.33;;;;;;;14.19;45.79;94851.22;5050434;28;20886;-75
2023/02/22 08:28:42;;;;;;;21.50;12.27;;;;;;;14.24;45.10;94848.94;5042983;28;20819;-73
2023/02/22 08:31:08;;;;;;;19.93;11.00;;;;;;;14.25;44.85;94848.78;5051373;28;20966;-73
2023/02/22 08:33:35;;;;;;;16.20;11.27;;;;;;;14.14;44.71;94848.19;5047039;28;20482;-73
2023/02/22 08:36:02;;;;;;;19.50;11.50;;;;;;;14.06;45.11;94843.66;5048046;28;20471;-74
2023/02/22 08:38:30;;;;;;;24.63;12.50;;;;;;;14.04;45.25;94840.34;5051772;28;20496;-74
2023/02/22 08:40:57;;;;;;;19.70;14.30;;;;;;;14.06;45.17;94841.03;5051642;28;20525;-73
2023/02/22 08:43:27;;;;;;;18.70;12.73;;;;;;;14.31;45.31;94838.59;5031886;28;20509;-73
2023/02/22 08:45:54;;;;;;;21.80;11.93;;;;;;;14.43;44.80;94827.63;5047276;28;20539;-73
2023/02/22 08:48:21;;;;;;;23.80;12.80;;;;;;;14.57;47.32;94834.19;5051643;28;20445;-73
2023/02/22 08:50:48;;;;;;;21.13;13.60;;;;;;;14.85;44.30;94830.38;5016146;28;20460;-73
2023/02/22 08:53:16;;;;;;;28.53;13.17;;;;;;;15.05;44.11;94832.78;5055710;28;20449;-74
2023/02/22 08:55:44;;;;;;;19.83;12.13;;;;;;;15.30;44.27;94826.59;5055090;28;20448;-73
2023/02/22 08:58:12;;;;;;;17.73;11.93;;;;;;;15.58;43.33;94828.97;5053366;28;20491;-73
2023/02/22 09:00:43;;;;;;;23.83;12.27;;;;;;;15.53;42.62;94826.00;5054699;28;20525;-73
2023/02/22 09:03:12;;;;;;;19.07;12.77;;;;;;;15.72;42.21;94817.81;5055671;28;20480;-73
2023/02/22 09:05:39;;;;;;;17.20;11.70;;;;;;;15.83;42.67;94821.94;5055032;28;20524;-74
2023/02/22 09:08:06;;;;;;;18.50;12.63;;;;;;;15.84;41.61;94816.50;5055665;28;20495;-74
2023/02/22 09:10:34;;;;;;;18.43;13.17;;;;;;;15.97;41.85;94823.97;5054863;28;20454;-73
2023/02/22 09:13:02;;;;;;;19.43;13.43;;;;;;;16.13;41.35;94810.72;5055232;28;20491;-73
2023/02/22 09:15:30;;;;;;;24.60;12.87;;;;;;;16.25;42.01;94811.22;5053780;28;20447;-74
2023/02/22 09:17:59;;;;;;;20.63;11.20;;;;;;;16.28;41.88;94809.06;5055033;28;20512;-72
2023/02/22 09:20:27;;;;;;;14.80;10.10;;;;;;;16.41;41.46;94811.19;5035518;28;20492;-73
2023/02/22 09:22:54;;;;;;;11.70;8.87;;;;;;;16.47;41.20;94805.22;5055185;28;20445;-74
2023/02/22 09:25:21;;;;;;;20.60;13.27;;;;;;;16.54;41.34;94806.22;5054139;28;20459;-73
2023/02/22 09:27:50;;;;;;;13.43;7.67;;;;;;;16.63;41.05;94805.19;5054974;28;20450;-73
2023/02/22 09:30:19;;;;;;;10.90;8.10;;;;;;;16.75;42.25;94797.75;5054493;28;21059;-73
2023/02/22 09:32:46;;;;;;;19.53;10.40;;;;;;;16.96;42.20;94805.13;5054529;28;20460;-74
2023/02/22 09:35:14;;;;;;;16.60;9.48;;;;;;;17.17;40.39;94800.09;5053544;28;20497;-74
2023/02/22 09:37:43;;;;;;;12.97;7.60;;;;;;;17.12;40.04;94791.84;5055052;28;20227;-75
2023/02/22 09:40:23;;;;;;;49.53;25.03;;;;;;;17.08;40.00;94795.00;5054771;28;20464;-75
2023/02/22 09:43:10;;;;;;;25.63;15.90;;;;;;;17.19;42.42;94794.63;5054692;28;20843;-74
2023/02/22 09:45:46;;;;;;;33.03;13.03;;;;;;;17.31;39.84;94795.88;5054528;28;20449;-74
2023/02/22 09:48:17;;;;;;;13.80;8.93;;;;;;;17.40;38.94;94796.66;5048971;28;20454;-74
2023/02/22 09:50:53;;;;;;;23.17;10.00;;;;;;;17.31;41.32;94790.56;5052741;28;20463;-74
2023/02/22 09:53:28;;;;;;;16.07;9.80;;;;;;;17.27;39.63;94787.44;5053035;28;20497;-75
2023/02/22 09:55:59;;;;;;;14.10;8.77;;;;;;;17.27;39.07;94787.44;5053738;28;20444;-72
2023/02/22 09:58:32;;;;;;;15.30;6.23;;;;;;;17.26;39.57;94787.59;5054564;28;21109;-75
2023/02/22 10:01:13;;;;;;;8.80;7.40;;;;;;;17.25;39.95;94780.66;5053878;28;20456;-74
2023/02/22 10:03:49;;;;;;;10.73;6.67;;;;;;;17.19;39.42;94770.75;5053120;28;20459;-74
2023/02/22 10:06:21;;;;;;;11.40;8.10;;;;;;;17.25;39.92;94770.88;5054730;28;20533;-75
2023/02/22 10:08:49;;;;;;;14.00;7.60;;;;;;;17.27;39.81;94766.22;5054333;28;20487;-75
2023/02/22 10:11:31;;;;;;;14.90;4.97;;;;;;;17.30;39.31;94771.16;5054953;28;20527;-74
2023/02/22 10:14:07;;;;;;;11.70;6.97;;;;;;;17.24;39.28;94763.91;5054621;28;20445;-75
2023/02/22 10:16:38;;;;;;;9.33;6.30;;;;;;;17.23;38.73;94754.31;5054577;28;20498;-75
2023/02/22 10:19:16;;;;;;;9.23;4.70;;;;;;;17.24;38.72;94747.19;5054674;28;20547;-74
2023/02/22 10:22:10;;;;;;;71.20;37.90;;;;;;;17.30;38.90;94741.16;5054291;28;20452;-74
2023/02/22 10:24:45;;;;;;;18.30;10.73;;;;;;;17.33;38.27;94731.03;4992501;28;20964;-75
2023/02/22 10:27:18;;;;;;;9.40;7.00;;;;;;;17.39;41.46;94737.50;4992879;28;20510;-74
2023/02/22 10:29:50;;;;;;;11.60;6.10;;;;;;;17.28;38.38;94735.22;4992595;28;20447;-73
2023/02/22 10:32:21;;;;;;;8.97;6.97;;;;;;;17.21;38.34;94721.00;4992424;28;20868;-75
2023/02/22 10:34:50;;;;;;;9.33;5.43;;;;;;;17.24;38.60;94712.69;4992629;28;20487;-74
2023/02/22 10:37:25;;;;;;;11.67;5.50;;;;;;;17.27;39.58;94707.03;4992323;28;20480;-75
2023/02/22 10:39:58;;;;;;;7.47;5.03;;;;;;;17.34;38.97;94705.34;4976381;28;20469;-75
2023/02/22 10:42:27;;;;;;;6.50;5.57;;;;;;;17.36;38.64;94706.00;4960062;28;20440;-75
2023/02/22 10:44:54;;;;;;;4.47;3.80;;;;;;;17.24;38.33;94700.28;4992654;28;20524;-72
2023/02/22 10:47:21;;;;;;;8.00;4.43;;;;;;;17.18;39.05;94698.31;4992075;28;20812;-75
2023/02/22 10:49:54;;;;;;;7.87;4.10;;;;;;;17.11;39.13;94693.91;4992502;28;20448;-74
2023/02/22 10:52:26;;;;;;;9.63;4.60;;;;;;;17.07;39.88;94689.94;4992451;28;20448;-74
2023/02/22 10:54:56;;;;;;;8.10;6.23;;;;;;;17.07;39.11;94679.34;4992014;28;20447;-74
2023/02/22 10:57:27;;;;;;;6.33;4.17;;;;;;;17.04;38.68;94683.97;4991965;28;20482;-75
2023/02/22 10:59:56;;;;;;;3.90;3.50;;;;;;;17.04;39.16;94681.31;4992151;28;20436;-75
2023/02/22 11:02:27;;;;;;;6.07;4.37;;;;;;;17.08;39.53;94673.88;5039388;28;20448;-74
2023/02/22 11:04:56;;;;;;;7.07;4.27;;;;;;;17.11;39.04;94668.22;5053550;28;20813;-74
2023/02/22 11:07:27;;;;;;;4.63;4.00;;;;;;;17.15;39.29;94674.81;5018934;28;20932;-74
2023/02/22 11:09:56;;;;;;;4.80;4.30;;;;;;;17.16;38.73;94668.50;5053960;28;20446;-74
2023/02/22 11:12:29;;;;;;;9.50;5.47;;;;;;;17.19;39.13;94668.16;5053526;28;20448;-74
2023/02/22 11:14:56;;;;;;;7.60;4.00;;;;;;;17.23;38.31;94672.09;5053205;28;20811;-75
2023/02/22 11:17:32;;;;;;;5.87;4.23;;;;;;;17.28;38.43;94664.44;5018208;28;20482;-74
2023/02/22 11:20:00;;;;;;;7.47;4.37;;;;;;;17.32;37.94;94665.72;5053447;28;20507;-74
2023/02/22 11:22:40;;;;;;;3.83;3.47;;;;;;;17.37;37.78;94662.56;5053542;28;20437;-74
2023/02/22 11:25:08;;;;;;;9.90;3.87;;;;;;;17.41;37.46;94665.69;5053312;28;20984;-74
2023/02/22 11:27:39;;;;;;;5.50;4.63;;;;;;;17.37;38.79;94659.09;5053335;28;20460;-74
2023/02/22 11:30:20;;;;;;;7.17;5.27;;;;;;;17.44;37.80;94655.53;5052932;28;20503;-75
2023/02/22 11:32:49;;;;;;;8.07;5.30;;;;;;;17.49;38.30;94652.34;5017538;28;20450;-74
2023/02/22 11:35:32;;;;;;;5.40;4.27;;;;;;;17.56;37.21;94647.97;5053569;28;20528;-75
2023/02/22 11:38:16;;;;;;;7.40;4.60;;;;;;;17.64;37.96;94632.84;5053141;28;20481;-74
2023/02/22 11:40:43;;;;;;;5.60;4.30;;;;;;;17.74;38.02;94635.25;5052652;28;20446;-74
2023/02/22 11:43:16;;;;;;;6.30;4.70;;;;;;;17.81;37.00;94630.88;5053436;28;20821;-75